International Virtual Aviation Organisation

Russian Federation and Kazakhstan MCD

 
UIBB 281400Z 00000MPS 9999 BKN004 M17/M19 Q1037 R30/821050 NOSIG RMK QBB120 MT OBSC QFE734/0978
QNH:(hPa/inHg/mmHg)1037 / 30.62 / 778
QFE:(hPa/inHg/mmHg)978 / 28.87 / 733
Temperature-17
Dew Point-19
Visibility> 10000
Weather
Cloud CoverBKN (400);
Transition Height900 m./4600 ft.
Transition LevelFL60
SQUAWK